DAL7326 EBOS-LIMF
Flight info
| Callsign | DAL7326 |
|---|---|
| Flight time | 1h 14m |
| Altitude | 35000 |
| Route | FERDI UL607 REMBA M624 DIK N852 GTQ A242 ARPUS DCT MOROK T14 MILPA DCT PAS Y21 VANAS DCT VEROB |
| Aircraft | A20N/M-SDE2E3FGHIRWXY/LB1 |
Departure
| Time | 2026-05-06 18:07 |
|---|---|
| Airport | Ostend-Bruges International Airport (EBOS) |
Arrival
| Time | 2026-05-06 19:22 |
|---|---|
| Airport | Turin Airport (LIMF) |
| Time | Latitude | Longitude | Altitude | Speed | Heading |
|---|---|---|---|---|---|
| 2026-05-06 17:55 | 51.20301 | 2.86737 | 14 ft | 0 kts | 349° |
| 2026-05-06 18:00 | 51.20296 | 2.86738 | 14 ft | 2 kts | 348° |
| 2026-05-06 18:01 | 51.20280 | 2.86744 | 14 ft | 3 kts | 345° |
| 2026-05-06 18:01 | 51.20257 | 2.86755 | 15 ft | 4 kts | 341° |
| 2026-05-06 18:01 | 51.20233 | 2.86774 | 14 ft | 4 kts | 306° |
| 2026-05-06 18:01 | 51.20228 | 2.86812 | 14 ft | 2 kts | 255° |
| 2026-05-06 18:02 | 51.20228 | 2.86814 | 14 ft | 0 kts | 255° |
| 2026-05-06 18:03 | 51.20228 | 2.86812 | 14 ft | 1 kts | 255° |
| 2026-05-06 18:03 | 51.20219 | 2.86758 | 14 ft | 8 kts | 255° |
| 2026-05-06 18:04 | 51.20169 | 2.86706 | 14 ft | 10 kts | 192° |
| 2026-05-06 18:04 | 51.20090 | 2.86691 | 14 ft | 13 kts | 186° |
| 2026-05-06 18:04 | 51.20025 | 2.86602 | 14 ft | 14 kts | 244° |
| 2026-05-06 18:04 | 51.19999 | 2.86439 | 14 ft | 16 kts | 256° |
| 2026-05-06 18:05 | 51.19971 | 2.86256 | 14 ft | 18 kts | 256° |
| 2026-05-06 18:05 | 51.19939 | 2.86047 | 14 ft | 20 kts | 256° |
| 2026-05-06 18:05 | 51.19906 | 2.85827 | 16 ft | 21 kts | 257° |
| 2026-05-06 18:05 | 51.19872 | 2.85591 | 15 ft | 20 kts | 258° |
| 2026-05-06 18:06 | 51.19838 | 2.85378 | 15 ft | 19 kts | 246° |
| 2026-05-06 18:06 | 51.19749 | 2.85262 | 14 ft | 14 kts | 185° |
| 2026-05-06 18:06 | 51.19666 | 2.85332 | 13 ft | 12 kts | 103° |
| 2026-05-06 18:06 | 51.19685 | 2.85481 | 13 ft | 20 kts | 76° |
| 2026-05-06 18:07 | 51.19774 | 2.86075 | 15 ft | 89 kts | 76° |
| 2026-05-06 18:07 | 51.19965 | 2.87333 | 16 ft | 142 kts | 76° |
| 2026-05-06 18:07 | 51.20213 | 2.89009 | 357 ft | 154 kts | 77° |
| 2026-05-06 18:07 | 51.20460 | 2.90681 | 899 ft | 159 kts | 77° |
| 2026-05-06 18:08 | 51.20716 | 2.92436 | 1423 ft | 165 kts | 78° |
| 2026-05-06 18:08 | 51.20971 | 2.94246 | 1952 ft | 174 kts | 78° |
| 2026-05-06 18:08 | 51.21260 | 2.96213 | 2477 ft | 192 kts | 76° |
| 2026-05-06 18:08 | 51.21601 | 2.98388 | 3046 ft | 213 kts | 76° |
| 2026-05-06 18:09 | 51.21751 | 3.00849 | 3609 ft | 234 kts | 101° |
| 2026-05-06 18:09 | 51.21059 | 3.03211 | 4467 ft | 240 kts | 127° |
| 2026-05-06 18:09 | 51.19994 | 3.05367 | 5144 ft | 257 kts | 128° |
| 2026-05-06 18:09 | 51.18873 | 3.07635 | 6005 ft | 259 kts | 127° |
| 2026-05-06 18:10 | 51.17763 | 3.09904 | 7027 ft | 260 kts | 127° |
| 2026-05-06 18:10 | 51.16643 | 3.12189 | 7917 ft | 264 kts | 128° |
| 2026-05-06 18:10 | 51.15504 | 3.14519 | 8794 ft | 268 kts | 127° |
| 2026-05-06 18:10 | 51.14353 | 3.16876 | 9633 ft | 272 kts | 127° |
| 2026-05-06 18:11 | 51.13194 | 3.19246 | 10477 ft | 275 kts | 127° |
| 2026-05-06 18:11 | 51.12403 | 3.20858 | 11021 ft | 278 kts | 129° |
| 2026-05-06 18:11 | 51.10621 | 3.24073 | 11608 ft | 304 kts | 131° |
| 2026-05-06 18:11 | 51.09146 | 3.26676 | 11867 ft | 327 kts | 131° |
| 2026-05-06 18:12 | 51.07595 | 3.29397 | 12262 ft | 342 kts | 132° |
| 2026-05-06 18:12 | 51.05974 | 3.32227 | 13017 ft | 347 kts | 132° |
| 2026-05-06 18:12 | 51.04901 | 3.34105 | 13535 ft | 349 kts | 132° |
| 2026-05-06 18:12 | 51.03259 | 3.36979 | 14280 ft | 353 kts | 132° |
| 2026-05-06 18:13 | 51.01042 | 3.40852 | 15213 ft | 358 kts | 132° |
| 2026-05-06 18:13 | 50.99907 | 3.42837 | 15692 ft | 361 kts | 132° |
| 2026-05-06 18:13 | 50.97646 | 3.46784 | 16572 ft | 366 kts | 132° |
| 2026-05-06 18:13 | 50.95979 | 3.49687 | 17208 ft | 370 kts | 132° |
| 2026-05-06 18:14 | 50.94800 | 3.51737 | 17638 ft | 372 kts | 132° |
| 2026-05-06 18:14 | 50.93048 | 3.54779 | 18270 ft | 376 kts | 132° |
| 2026-05-06 18:14 | 50.91277 | 3.57853 | 18872 ft | 379 kts | 132° |
| 2026-05-06 18:14 | 50.89529 | 3.60881 | 19467 ft | 383 kts | 132° |
| 2026-05-06 18:15 | 50.87729 | 3.63996 | 20064 ft | 386 kts | 132° |
| 2026-05-06 18:15 | 50.85896 | 3.67168 | 20640 ft | 390 kts | 132° |
| 2026-05-06 18:15 | 50.84054 | 3.70351 | 21182 ft | 394 kts | 132° |
| 2026-05-06 18:15 | 50.82188 | 3.73570 | 21726 ft | 397 kts | 132° |
| 2026-05-06 18:16 | 50.80311 | 3.76803 | 22259 ft | 400 kts | 132° |
| 2026-05-06 18:16 | 50.78419 | 3.80057 | 22791 ft | 403 kts | 132° |
| 2026-05-06 18:16 | 50.76515 | 3.83328 | 23289 ft | 407 kts | 132° |
| 2026-05-06 18:16 | 50.74590 | 3.86631 | 23785 ft | 410 kts | 132° |
| 2026-05-06 18:17 | 50.72647 | 3.89958 | 24265 ft | 413 kts | 132° |
| 2026-05-06 18:17 | 50.70688 | 3.93308 | 24728 ft | 416 kts | 132° |
| 2026-05-06 18:17 | 50.68714 | 3.96682 | 25180 ft | 419 kts | 132° |
| 2026-05-06 18:17 | 50.66731 | 4.00067 | 25625 ft | 422 kts | 132° |
| 2026-05-06 18:18 | 50.64730 | 4.03477 | 26049 ft | 425 kts | 132° |
| 2026-05-06 18:18 | 50.62718 | 4.06903 | 26465 ft | 428 kts | 132° |
| 2026-05-06 18:18 | 50.60712 | 4.10313 | 26858 ft | 431 kts | 132° |
| 2026-05-06 18:18 | 50.58639 | 4.13834 | 27243 ft | 434 kts | 132° |
| 2026-05-06 18:19 | 50.56603 | 4.17283 | 27610 ft | 436 kts | 132° |
| 2026-05-06 18:19 | 50.54533 | 4.20787 | 27974 ft | 438 kts | 133° |
| 2026-05-06 18:19 | 50.52443 | 4.24321 | 28317 ft | 441 kts | 132° |
| 2026-05-06 18:19 | 50.50342 | 4.27869 | 28651 ft | 443 kts | 133° |
| 2026-05-06 18:20 | 50.48266 | 4.31368 | 28970 ft | 446 kts | 133° |
| 2026-05-06 18:20 | 50.46103 | 4.35007 | 29277 ft | 448 kts | 133° |
| 2026-05-06 18:20 | 50.43972 | 4.38586 | 29580 ft | 450 kts | 133° |
| 2026-05-06 18:20 | 50.41853 | 4.42145 | 29871 ft | 452 kts | 133° |
| 2026-05-06 18:21 | 50.39700 | 4.45754 | 30171 ft | 454 kts | 133° |
| 2026-05-06 18:21 | 50.37561 | 4.49335 | 30454 ft | 457 kts | 133° |
| 2026-05-06 18:21 | 50.35358 | 4.53017 | 30729 ft | 459 kts | 133° |
| 2026-05-06 18:21 | 50.33166 | 4.56676 | 31017 ft | 461 kts | 133° |
| 2026-05-06 18:22 | 50.30967 | 4.60340 | 31301 ft | 463 kts | 133° |
| 2026-05-06 18:22 | 50.28782 | 4.63975 | 31656 ft | 463 kts | 133° |
| 2026-05-06 18:22 | 50.26579 | 4.67637 | 32039 ft | 462 kts | 133° |
| 2026-05-06 18:22 | 50.24382 | 4.71281 | 32404 ft | 461 kts | 133° |
| 2026-05-06 18:23 | 50.22178 | 4.74931 | 32764 ft | 461 kts | 133° |
| 2026-05-06 18:23 | 50.19985 | 4.78559 | 33103 ft | 460 kts | 133° |
| 2026-05-06 18:23 | 50.17786 | 4.82191 | 33441 ft | 459 kts | 133° |
| 2026-05-06 18:23 | 50.15597 | 4.85803 | 33753 ft | 458 kts | 133° |
| 2026-05-06 18:24 | 50.13404 | 4.89415 | 34075 ft | 457 kts | 133° |
| 2026-05-06 18:24 | 50.11220 | 4.93007 | 34356 ft | 457 kts | 133° |
| 2026-05-06 18:24 | 50.09034 | 4.96600 | 34624 ft | 457 kts | 133° |
| 2026-05-06 18:24 | 50.06869 | 5.00151 | 34879 ft | 456 kts | 133° |
| 2026-05-06 18:25 | 50.04680 | 5.03739 | 35115 ft | 456 kts | 133° |
| 2026-05-06 18:25 | 50.02495 | 5.07313 | 35168 ft | 456 kts | 133° |
| 2026-05-06 18:25 | 49.98126 | 5.14445 | 35169 ft | 454 kts | 133° |
| 2026-05-06 18:26 | 49.93790 | 5.21502 | 35169 ft | 455 kts | 133° |
| 2026-05-06 18:26 | 49.89410 | 5.28610 | 35169 ft | 455 kts | 133° |
| 2026-05-06 18:27 | 49.85028 | 5.35702 | 35170 ft | 455 kts | 133° |
| 2026-05-06 18:27 | 49.80641 | 5.42784 | 35169 ft | 455 kts | 133° |
| 2026-05-06 18:28 | 49.76248 | 5.49854 | 35167 ft | 455 kts | 133° |
| 2026-05-06 18:28 | 49.71865 | 5.56890 | 35167 ft | 454 kts | 133° |
| 2026-05-06 18:29 | 49.67471 | 5.63923 | 35168 ft | 454 kts | 134° |
| 2026-05-06 18:29 | 49.63082 | 5.70931 | 35167 ft | 454 kts | 134° |
| 2026-05-06 18:30 | 49.58706 | 5.77895 | 35166 ft | 454 kts | 134° |
| 2026-05-06 18:30 | 49.54299 | 5.84888 | 35172 ft | 454 kts | 134° |
| 2026-05-06 18:31 | 49.49874 | 5.91889 | 35168 ft | 455 kts | 134° |
| 2026-05-06 18:31 | 49.45462 | 5.98860 | 35166 ft | 455 kts | 134° |
| 2026-05-06 18:32 | 49.41121 | 6.05697 | 35166 ft | 454 kts | 134° |
| 2026-05-06 18:32 | 49.36705 | 6.12631 | 35174 ft | 454 kts | 134° |
| 2026-05-06 18:33 | 49.32271 | 6.19572 | 35176 ft | 454 kts | 134° |
| 2026-05-06 18:33 | 49.27872 | 6.26443 | 35176 ft | 455 kts | 134° |
| 2026-05-06 18:34 | 49.23435 | 6.33354 | 35172 ft | 455 kts | 134° |
| 2026-05-06 18:34 | 49.19010 | 6.40225 | 35170 ft | 454 kts | 134° |
| 2026-05-06 18:35 | 49.14569 | 6.47103 | 35172 ft | 454 kts | 134° |
| 2026-05-06 18:35 | 49.10149 | 6.53931 | 35170 ft | 454 kts | 134° |
| 2026-05-06 18:36 | 49.05702 | 6.60784 | 35166 ft | 454 kts | 134° |
| 2026-05-06 18:36 | 49.00922 | 6.67042 | 35165 ft | 454 kts | 148° |
| 2026-05-06 18:37 | 48.96108 | 6.70282 | 35161 ft | 455 kts | 164° |
| 2026-05-06 18:37 | 48.91961 | 6.71312 | 35156 ft | 456 kts | 178° |
| 2026-05-06 18:37 | 48.88770 | 6.71236 | 35154 ft | 456 kts | 181° |
| 2026-05-06 18:38 | 48.82420 | 6.70972 | 35162 ft | 456 kts | 180° |
| 2026-05-06 18:38 | 48.76058 | 6.70729 | 35165 ft | 457 kts | 181° |
| 2026-05-06 18:39 | 48.69727 | 6.70483 | 35167 ft | 457 kts | 181° |
| 2026-05-06 18:40 | 48.60185 | 6.70112 | 35171 ft | 458 kts | 181° |
| 2026-05-06 18:40 | 48.53812 | 6.69868 | 35175 ft | 458 kts | 181° |
| 2026-05-06 18:41 | 48.47464 | 6.69624 | 35177 ft | 459 kts | 181° |
| 2026-05-06 18:41 | 48.41082 | 6.69381 | 35173 ft | 459 kts | 180° |
| 2026-05-06 18:42 | 48.34682 | 6.69136 | 35175 ft | 459 kts | 181° |
| 2026-05-06 18:42 | 48.28317 | 6.68891 | 35174 ft | 459 kts | 181° |
| 2026-05-06 18:43 | 48.21954 | 6.68645 | 35168 ft | 459 kts | 181° |
| 2026-05-06 18:43 | 48.15568 | 6.68400 | 35167 ft | 459 kts | 181° |
| 2026-05-06 18:44 | 48.09178 | 6.68158 | 35158 ft | 459 kts | 181° |
| 2026-05-06 18:44 | 48.02805 | 6.67916 | 35166 ft | 458 kts | 181° |
| 2026-05-06 18:45 | 47.96408 | 6.67892 | 35154 ft | 458 kts | 178° |
| 2026-05-06 18:45 | 47.90036 | 6.68152 | 35165 ft | 458 kts | 178° |
| 2026-05-06 18:46 | 47.83634 | 6.68366 | 35158 ft | 459 kts | 178° |
| 2026-05-06 18:46 | 47.77253 | 6.68548 | 35159 ft | 459 kts | 178° |
| 2026-05-06 18:47 | 47.70861 | 6.68724 | 35171 ft | 459 kts | 178° |
| 2026-05-06 18:47 | 47.64520 | 6.68898 | 35178 ft | 460 kts | 178° |
| 2026-05-06 18:48 | 47.58154 | 6.69073 | 35178 ft | 460 kts | 178° |
| 2026-05-06 18:48 | 47.51699 | 6.69250 | 35169 ft | 458 kts | 178° |
| 2026-05-06 18:49 | 47.45334 | 6.69423 | 35168 ft | 458 kts | 178° |
| 2026-05-06 18:49 | 47.38987 | 6.69597 | 35169 ft | 459 kts | 178° |
| 2026-05-06 18:50 | 47.33628 | 6.69744 | 35169 ft | 460 kts | 178° |
| 2026-05-06 18:50 | 47.27227 | 6.69917 | 35165 ft | 460 kts | 178° |
| 2026-05-06 18:51 | 47.20821 | 6.70092 | 35167 ft | 460 kts | 178° |
| 2026-05-06 18:51 | 47.14421 | 6.70265 | 35170 ft | 462 kts | 178° |
| 2026-05-06 18:52 | 47.07992 | 6.70438 | 35170 ft | 462 kts | 178° |
| 2026-05-06 18:52 | 47.01559 | 6.70611 | 35169 ft | 463 kts | 178° |
| 2026-05-06 18:53 | 46.95119 | 6.70784 | 35174 ft | 462 kts | 178° |
| 2026-05-06 18:53 | 46.88687 | 6.70956 | 35170 ft | 464 kts | 178° |
| 2026-05-06 18:54 | 46.82254 | 6.71128 | 35168 ft | 457 kts | 178° |
| 2026-05-06 18:54 | 46.75888 | 6.71298 | 35169 ft | 460 kts | 178° |
| 2026-05-06 18:55 | 46.69488 | 6.71469 | 35168 ft | 459 kts | 178° |
| 2026-05-06 18:55 | 46.63097 | 6.71638 | 35168 ft | 461 kts | 178° |
| 2026-05-06 18:56 | 46.56665 | 6.71809 | 35170 ft | 462 kts | 178° |
| 2026-05-06 18:56 | 46.50244 | 6.71979 | 35177 ft | 462 kts | 178° |
| 2026-05-06 18:57 | 46.43843 | 6.72147 | 35169 ft | 457 kts | 178° |
| 2026-05-06 18:57 | 46.37460 | 6.72315 | 35169 ft | 461 kts | 178° |
| 2026-05-06 18:58 | 46.31006 | 6.72486 | 35171 ft | 466 kts | 178° |
| 2026-05-06 18:58 | 46.27847 | 6.72568 | 35465 ft | 461 kts | 178° |
| 2026-05-06 18:58 | 46.24636 | 6.72652 | 35802 ft | 458 kts | 178° |
| 2026-05-06 18:58 | 46.21452 | 6.72735 | 35607 ft | 459 kts | 178° |
| 2026-05-06 18:59 | 46.18260 | 6.72818 | 35275 ft | 457 kts | 178° |
| 2026-05-06 18:59 | 46.15077 | 6.72901 | 34869 ft | 458 kts | 178° |
| 2026-05-06 18:59 | 46.11860 | 6.72985 | 34621 ft | 465 kts | 178° |
| 2026-05-06 18:59 | 46.08620 | 6.73069 | 34372 ft | 466 kts | 178° |
| 2026-05-06 19:00 | 46.05392 | 6.73153 | 34120 ft | 461 kts | 178° |
| 2026-05-06 19:00 | 46.02204 | 6.73236 | 33876 ft | 467 kts | 178° |
| 2026-05-06 19:00 | 45.98928 | 6.73321 | 33626 ft | 474 kts | 178° |
| 2026-05-06 19:00 | 45.95613 | 6.73406 | 33280 ft | 477 kts | 178° |
| 2026-05-06 19:01 | 45.92299 | 6.73492 | 32847 ft | 474 kts | 178° |
| 2026-05-06 19:01 | 45.88999 | 6.73577 | 31983 ft | 477 kts | 178° |
| 2026-05-06 19:01 | 45.85649 | 6.73664 | 30885 ft | 484 kts | 178° |
| 2026-05-06 19:01 | 45.82312 | 6.73750 | 30117 ft | 482 kts | 178° |
| 2026-05-06 19:02 | 45.78984 | 6.73835 | 29616 ft | 474 kts | 178° |
| 2026-05-06 19:02 | 45.75723 | 6.73918 | 29069 ft | 469 kts | 178° |
| 2026-05-06 19:02 | 45.72457 | 6.74002 | 28336 ft | 467 kts | 178° |
| 2026-05-06 19:02 | 45.69241 | 6.74084 | 27824 ft | 461 kts | 178° |
| 2026-05-06 19:03 | 45.66053 | 6.74166 | 27312 ft | 454 kts | 178° |
| 2026-05-06 19:03 | 45.62900 | 6.74247 | 26718 ft | 450 kts | 178° |
| 2026-05-06 19:03 | 45.59790 | 6.74326 | 26185 ft | 445 kts | 178° |
| 2026-05-06 19:03 | 45.56703 | 6.74405 | 25608 ft | 440 kts | 178° |
| 2026-05-06 19:04 | 45.53667 | 6.74487 | 25028 ft | 436 kts | 177° |
| 2026-05-06 19:04 | 45.50681 | 6.75090 | 24414 ft | 431 kts | 164° |
| 2026-05-06 19:04 | 45.47912 | 6.76657 | 23839 ft | 426 kts | 150° |
| 2026-05-06 19:04 | 45.45531 | 6.79091 | 23338 ft | 419 kts | 136° |
| 2026-05-06 19:05 | 45.43674 | 6.82239 | 22794 ft | 414 kts | 121° |
| 2026-05-06 19:05 | 45.42468 | 6.85860 | 22282 ft | 409 kts | 108° |
| 2026-05-06 19:05 | 45.41639 | 6.89711 | 21747 ft | 405 kts | 106° |
| 2026-05-06 19:05 | 45.40838 | 6.93572 | 21209 ft | 401 kts | 107° |
| 2026-05-06 19:06 | 45.40011 | 6.97302 | 20683 ft | 398 kts | 108° |
| 2026-05-06 19:06 | 45.39133 | 7.01020 | 20158 ft | 395 kts | 109° |
| 2026-05-06 19:06 | 45.38230 | 7.04697 | 19627 ft | 392 kts | 109° |
| 2026-05-06 19:06 | 45.37321 | 7.08332 | 19109 ft | 388 kts | 109° |
| 2026-05-06 19:07 | 45.36411 | 7.11940 | 18581 ft | 385 kts | 109° |
| 2026-05-06 19:07 | 45.35510 | 7.15509 | 18053 ft | 382 kts | 110° |
| 2026-05-06 19:07 | 45.34614 | 7.19046 | 17541 ft | 378 kts | 110° |
| 2026-05-06 19:07 | 45.33727 | 7.22547 | 17039 ft | 375 kts | 109° |
| 2026-05-06 19:08 | 45.32842 | 7.26044 | 16519 ft | 373 kts | 109° |
| 2026-05-06 19:08 | 45.31989 | 7.29402 | 16039 ft | 370 kts | 110° |
| 2026-05-06 19:08 | 45.31116 | 7.32831 | 15531 ft | 367 kts | 110° |
| 2026-05-06 19:08 | 45.30215 | 7.36205 | 15020 ft | 365 kts | 114° |
| 2026-05-06 19:09 | 45.29026 | 7.39362 | 14527 ft | 362 kts | 122° |
| 2026-05-06 19:09 | 45.27523 | 7.42190 | 14271 ft | 352 kts | 131° |
| 2026-05-06 19:09 | 45.25912 | 7.44707 | 14134 ft | 338 kts | 131° |
| 2026-05-06 19:09 | 45.24382 | 7.47128 | 14021 ft | 325 kts | 131° |
| 2026-05-06 19:10 | 45.22792 | 7.49409 | 13863 ft | 314 kts | 141° |
| 2026-05-06 19:10 | 45.21206 | 7.51451 | 13628 ft | 306 kts | 131° |
| 2026-05-06 19:10 | 45.19831 | 7.53765 | 13185 ft | 306 kts | 129° |
| 2026-05-06 19:10 | 45.18509 | 7.56080 | 12738 ft | 306 kts | 128° |
| 2026-05-06 19:11 | 45.17185 | 7.58437 | 12289 ft | 305 kts | 128° |
| 2026-05-06 19:11 | 45.15867 | 7.60784 | 11827 ft | 303 kts | 128° |
| 2026-05-06 19:11 | 45.14576 | 7.63076 | 11383 ft | 296 kts | 128° |
| 2026-05-06 19:11 | 45.13309 | 7.65331 | 10928 ft | 290 kts | 128° |
| 2026-05-06 19:12 | 45.12065 | 7.67542 | 10478 ft | 283 kts | 128° |
| 2026-05-06 19:12 | 45.10846 | 7.69704 | 10028 ft | 278 kts | 128° |
| 2026-05-06 19:12 | 45.09650 | 7.71826 | 9577 ft | 273 kts | 128° |
| 2026-05-06 19:12 | 45.08433 | 7.73856 | 9119 ft | 269 kts | 139° |
| 2026-05-06 19:13 | 45.06796 | 7.75096 | 8657 ft | 262 kts | 167° |
| 2026-05-06 19:13 | 45.04996 | 7.75194 | 8217 ft | 258 kts | 182° |
| 2026-05-06 19:13 | 45.03222 | 7.75006 | 7759 ft | 254 kts | 183° |
| 2026-05-06 19:13 | 45.01491 | 7.74815 | 7331 ft | 253 kts | 183° |
| 2026-05-06 19:14 | 44.99706 | 7.74620 | 6869 ft | 252 kts | 183° |
| 2026-05-06 19:14 | 44.97958 | 7.74428 | 6421 ft | 251 kts | 183° |
| 2026-05-06 19:14 | 44.96234 | 7.74233 | 5971 ft | 250 kts | 184° |
| 2026-05-06 19:14 | 44.94600 | 7.73496 | 5548 ft | 248 kts | 213° |
| 2026-05-06 19:15 | 44.93426 | 7.71708 | 5094 ft | 247 kts | 243° |
| 2026-05-06 19:15 | 44.93052 | 7.69407 | 4650 ft | 246 kts | 274° |
| 2026-05-06 19:15 | 44.93558 | 7.67142 | 4224 ft | 243 kts | 307° |
| 2026-05-06 19:15 | 44.94783 | 7.65631 | 4047 ft | 228 kts | 332° |
| 2026-05-06 19:16 | 44.96125 | 7.64606 | 4010 ft | 209 kts | 335° |
| 2026-05-06 19:16 | 44.97498 | 7.63901 | 4034 ft | 216 kts | 350° |
| 2026-05-06 19:16 | 44.98918 | 7.63685 | 4006 ft | 194 kts | 0° |
| 2026-05-06 19:16 | 45.00191 | 7.63705 | 4003 ft | 172 kts | 4° |
| 2026-05-06 19:17 | 45.01320 | 7.63770 | 4003 ft | 155 kts | 4° |
| 2026-05-06 19:17 | 45.02451 | 7.63841 | 3998 ft | 163 kts | 5° |
| 2026-05-06 19:17 | 45.03522 | 7.63903 | 3923 ft | 148 kts | 5° |
| 2026-05-06 19:17 | 45.04545 | 7.63974 | 3735 ft | 147 kts | 5° |
| 2026-05-06 19:18 | 45.05568 | 7.64038 | 3542 ft | 146 kts | 6° |
| 2026-05-06 19:18 | 45.06583 | 7.64105 | 3362 ft | 147 kts | 5° |
| 2026-05-06 19:18 | 45.07586 | 7.64167 | 3161 ft | 145 kts | 5° |
| 2026-05-06 19:18 | 45.08593 | 7.64229 | 2977 ft | 146 kts | 5° |
| 2026-05-06 19:19 | 45.09598 | 7.64295 | 2795 ft | 146 kts | 5° |
| 2026-05-06 19:19 | 45.10602 | 7.64359 | 2585 ft | 143 kts | 4° |
| 2026-05-06 19:19 | 45.11610 | 7.64423 | 2398 ft | 144 kts | 5° |
| 2026-05-06 19:19 | 45.12609 | 7.64491 | 2212 ft | 145 kts | 5° |
| 2026-05-06 19:20 | 45.13613 | 7.64553 | 2009 ft | 141 kts | 4° |
| 2026-05-06 19:20 | 45.14587 | 7.64612 | 1829 ft | 141 kts | 5° |
| 2026-05-06 19:20 | 45.15571 | 7.64679 | 1640 ft | 143 kts | 5° |
| 2026-05-06 19:20 | 45.16573 | 7.64751 | 1455 ft | 144 kts | 4° |
| 2026-05-06 19:21 | 45.17584 | 7.64815 | 1223 ft | 146 kts | 2° |
| 2026-05-06 19:21 | 45.18576 | 7.64864 | 1005 ft | 136 kts | 5° |
| 2026-05-06 19:21 | 45.19464 | 7.64923 | 961 ft | 118 kts | 3° |
| 2026-05-06 19:21 | 45.20148 | 7.64970 | 977 ft | 77 kts | 4° |
| 2026-05-06 19:22 | 45.20544 | 7.64996 | 986 ft | 40 kts | 1° |
| 2026-05-06 19:22 | 45.20756 | 7.64998 | 988 ft | 24 kts | 358° |
| 2026-05-06 19:22 | 45.20875 | 7.64873 | 994 ft | 22 kts | 274° |
| 2026-05-06 19:22 | 45.20767 | 7.64742 | 992 ft | 23 kts | 184° |
| 2026-05-06 19:23 | 45.20601 | 7.64732 | 991 ft | 25 kts | 181° |
| 2026-05-06 19:23 | 45.20430 | 7.64722 | 986 ft | 25 kts | 185° |
| 2026-05-06 19:23 | 45.20258 | 7.64718 | 983 ft | 24 kts | 180° |
| 2026-05-06 19:23 | 45.20082 | 7.64700 | 968 ft | 27 kts | 185° |
| 2026-05-06 19:24 | 45.19911 | 7.64688 | 962 ft | 24 kts | 183° |
| 2026-05-06 19:24 | 45.19754 | 7.64696 | 958 ft | 22 kts | 175° |
| 2026-05-06 19:24 | 45.19597 | 7.64692 | 957 ft | 24 kts | 182° |
| 2026-05-06 19:24 | 45.19422 | 7.64683 | 957 ft | 26 kts | 182° |
| 2026-05-06 19:25 | 45.19273 | 7.64671 | 955 ft | 22 kts | 184° |
| 2026-05-06 19:25 | 45.19141 | 7.64662 | 950 ft | 14 kts | 182° |
| 2026-05-06 19:25 | 45.19087 | 7.64648 | 949 ft | 5 kts | 220° |
| 2026-05-06 19:25 | 45.19079 | 7.64602 | 948 ft | 7 kts | 260° |
| 2026-05-06 19:26 | 45.19067 | 7.64524 | 948 ft | 7 kts | 258° |
| 2026-05-06 19:26 | 45.19063 | 7.64499 | 948 ft | 2 kts | 259° |
| 2026-05-06 19:26 | 45.19061 | 7.64490 | 948 ft | 0 kts | 253° |